sensor_id;sensor_type;location;lat;lon;timestamp;temperature;humidity
12166;DHT22;6146;48.128;11.476;2023-03-23T00:02:27;10.70;94.10
12166;DHT22;6146;48.128;11.476;2023-03-23T00:04:53;10.70;93.90
12166;DHT22;6146;48.128;11.476;2023-03-23T00:07:20;10.60;94.00
12166;DHT22;6146;48.128;11.476;2023-03-23T00:09:53;10.70;94.10
12166;DHT22;6146;48.128;11.476;2023-03-23T00:12:26;10.70;94.20
12166;DHT22;6146;48.128;11.476;2023-03-23T00:15:01;10.70;94.40
12166;DHT22;6146;48.128;11.476;2023-03-23T00:17:28;10.70;94.40
12166;DHT22;6146;48.128;11.476;2023-03-23T00:19:54;10.70;94.50
12166;DHT22;6146;48.128;11.476;2023-03-23T00:22:20;10.70;94.50
12166;DHT22;6146;48.128;11.476;2023-03-23T00:24:47;10.70;94.70
12166;DHT22;6146;48.128;11.476;2023-03-23T00:27:16;10.70;94.70
12166;DHT22;6146;48.128;11.476;2023-03-23T00:29:42;10.80;94.80
12166;DHT22;6146;48.128;11.476;2023-03-23T00:32:08;10.70;94.80
12166;DHT22;6146;48.128;11.476;2023-03-23T00:34:40;10.80;95.00
12166;DHT22;6146;48.128;11.476;2023-03-23T00:37:07;10.70;95.10
12166;DHT22;6146;48.128;11.476;2023-03-23T00:39:33;10.70;95.20
12166;DHT22;6146;48.128;11.476;2023-03-23T00:42:02;10.70;95.40
12166;DHT22;6146;48.128;11.476;2023-03-23T00:44:30;10.70;95.70
12166;DHT22;6146;48.128;11.476;2023-03-23T00:46:57;10.60;95.80
12166;DHT22;6146;48.128;11.476;2023-03-23T00:49:24;10.60;96.00
12166;DHT22;6146;48.128;11.476;2023-03-23T00:51:54;10.60;96.10
12166;DHT22;6146;48.128;11.476;2023-03-23T00:54:20;10.60;96.30
12166;DHT22;6146;48.128;11.476;2023-03-23T00:56:46;10.60;96.50
12166;DHT22;6146;48.128;11.476;2023-03-23T00:59:12;10.60;96.80
12166;DHT22;6146;48.128;11.476;2023-03-23T01:01:37;10.50;96.80
12166;DHT22;6146;48.128;11.476;2023-03-23T01:04:04;10.50;97.00
12166;DHT22;6146;48.128;11.476;2023-03-23T01:06:37;10.50;97.20
12166;DHT22;6146;48.128;11.476;2023-03-23T01:09:07;10.50;97.40
12166;DHT22;6146;48.128;11.476;2023-03-23T01:11:33;10.50;97.60
12166;DHT22;6146;48.128;11.476;2023-03-23T01:14:00;10.50;97.80
12166;DHT22;6146;48.128;11.476;2023-03-23T01:16:27;10.50;97.90
12166;DHT22;6146;48.128;11.476;2023-03-23T01:18:52;10.50;98.10
12166;DHT22;6146;48.128;11.476;2023-03-23T01:21:19;10.50;98.20
12166;DHT22;6146;48.128;11.476;2023-03-23T01:23:45;10.40;98.50
12166;DHT22;6146;48.128;11.476;2023-03-23T01:26:16;10.40;98.80
12166;DHT22;6146;48.128;11.476;2023-03-23T01:28:43;10.40;99.10
12166;DHT22;6146;48.128;11.476;2023-03-23T01:31:12;10.30;99.50
12166;DHT22;6146;48.128;11.476;2023-03-23T01:33:39;10.20;99.80
12166;DHT22;6146;48.128;11.476;2023-03-23T01:36:11;10.20;99.90
12166;DHT22;6146;48.128;11.476;2023-03-23T01:38:37;10.20;99.90
12166;DHT22;6146;48.128;11.476;2023-03-23T01:41:04;10.20;99.90
12166;DHT22;6146;48.128;11.476;2023-03-23T01:43:29;10.20;99.90
12166;DHT22;6146;48.128;11.476;2023-03-23T01:45:55;10.10;99.90
12166;DHT22;6146;48.128;11.476;2023-03-23T01:51:01;10.10;99.90
12166;DHT22;6146;48.128;11.476;2023-03-23T01:53:36;10.10;99.90
12166;DHT22;6146;48.128;11.476;2023-03-23T01:56:03;10.00;99.90
12166;DHT22;6146;48.128;11.476;2023-03-23T01:58:32;10.00;99.90
12166;DHT22;6146;48.128;11.476;2023-03-23T02:01:05;9.90;99.90
12166;DHT22;6146;48.128;11.476;2023-03-23T02:03:35;9.90;99.90
12166;DHT22;6146;48.128;11.476;2023-03-23T02:06:01;9.80;99.90
12166;DHT22;6146;48.128;11.476;2023-03-23T02:08:29;9.80;99.90
12166;DHT22;6146;48.128;11.476;2023-03-23T02:10:58;9.80;99.90
12166;DHT22;6146;48.128;11.476;2023-03-23T02:13:24;9.80;99.90
12166;DHT22;6146;48.128;11.476;2023-03-23T02:16:14;9.80;99.90
12166;DHT22;6146;48.128;11.476;2023-03-23T02:27:00;9.90;99.90
12166;DHT22;6146;48.128;11.476;2023-03-23T02:32:52;9.90;99.90
12166;DHT22;6146;48.128;11.476;2023-03-23T02:35:20;10.00;99.90
12166;DHT22;6146;48.128;11.476;2023-03-23T02:37:51;10.00;99.90
12166;DHT22;6146;48.128;11.476;2023-03-23T02:40:21;10.10;99.90
12166;DHT22;6146;48.128;11.476;2023-03-23T02:42:51;10.10;99.90
12166;DHT22;6146;48.128;11.476;2023-03-23T02:45:21;10.10;99.90
12166;DHT22;6146;48.128;11.476;2023-03-23T02:47:50;10.10;99.90
12166;DHT22;6146;48.128;11.476;2023-03-23T02:50:18;10.10;99.90
12166;DHT22;6146;48.128;11.476;2023-03-23T02:52:46;10.10;99.90
12166;DHT22;6146;48.128;11.476;2023-03-23T02:55:12;10.20;99.90
12166;DHT22;6146;48.128;11.476;2023-03-23T02:57:39;10.20;99.90
12166;DHT22;6146;48.128;11.476;2023-03-23T03:00:07;10.10;99.90
12166;DHT22;6146;48.128;11.476;2023-03-23T03:02:54;10.20;99.90
12166;DHT22;6146;48.128;11.476;2023-03-23T03:05:43;10.20;99.90
12166;DHT22;6146;48.128;11.476;2023-03-23T03:08:29;10.10;99.90
12166;DHT22;6146;48.128;11.476;2023-03-23T03:11:16;10.10;99.90
12166;DHT22;6146;48.128;11.476;2023-03-23T03:14:05;10.00;99.90
12166;DHT22;6146;48.128;11.476;2023-03-23T03:16:42;10.00;99.90
12166;DHT22;6146;48.128;11.476;2023-03-23T03:19:16;10.00;99.90
12166;DHT22;6146;48.128;11.476;2023-03-23T03:21:46;10.00;99.90
12166;DHT22;6146;48.128;11.476;2023-03-23T03:24:15;10.00;99.90
12166;DHT22;6146;48.128;11.476;2023-03-23T03:26:45;10.00;99.90
12166;DHT22;6146;48.128;11.476;2023-03-23T03:29:14;10.00;99.90
12166;DHT22;6146;48.128;11.476;2023-03-23T03:31:44;10.00;99.90
12166;DHT22;6146;48.128;11.476;2023-03-23T03:34:11;10.00;99.90
12166;DHT22;6146;48.128;11.476;2023-03-23T03:36:38;10.00;99.90
12166;DHT22;6146;48.128;11.476;2023-03-23T03:39:07;10.10;99.90
12166;DHT22;6146;48.128;11.476;2023-03-23T03:41:35;10.10;99.90
12166;DHT22;6146;48.128;11.476;2023-03-23T03:44:02;10.10;99.90
12166;DHT22;6146;48.128;11.476;2023-03-23T03:46:28;10.00;99.90
12166;DHT22;6146;48.128;11.476;2023-03-23T03:48:55;10.00;99.90
12166;DHT22;6146;48.128;11.476;2023-03-23T03:51:22;10.00;99.90
12166;DHT22;6146;48.128;11.476;2023-03-23T03:53:48;10.00;99.90
12166;DHT22;6146;48.128;11.476;2023-03-23T03:56:13;10.00;99.90
12166;DHT22;6146;48.128;11.476;2023-03-23T03:58:39;9.90;99.90
12166;DHT22;6146;48.128;11.476;2023-03-23T04:01:08;10.00;99.90
12166;DHT22;6146;48.128;11.476;2023-03-23T04:03:37;10.00;99.90
12166;DHT22;6146;48.128;11.476;2023-03-23T04:06:03;10.00;99.90
12166;DHT22;6146;48.128;11.476;2023-03-23T04:08:29;10.10;99.90
12166;DHT22;6146;48.128;11.476;2023-03-23T04:10:55;10.10;99.90
12166;DHT22;6146;48.128;11.476;2023-03-23T04:13:21;10.10;99.90
12166;DHT22;6146;48.128;11.476;2023-03-23T04:15:47;10.10;99.90
12166;DHT22;6146;48.128;11.476;2023-03-23T04:18:13;10.10;99.90
12166;DHT22;6146;48.128;11.476;2023-03-23T04:20:41;10.10;99.90
12166;DHT22;6146;48.128;11.476;2023-03-23T04:23:07;10.10;99.90
12166;DHT22;6146;48.128;11.476;2023-03-23T04:25:32;10.10;99.90
12166;DHT22;6146;48.128;11.476;2023-03-23T04:27:59;10.10;99.90
12166;DHT22;6146;48.128;11.476;2023-03-23T04:30:27;10.10;99.90
12166;DHT22;6146;48.128;11.476;2023-03-23T04:32:53;10.10;99.90
12166;DHT22;6146;48.128;11.476;2023-03-23T04:35:23;10.10;99.90
12166;DHT22;6146;48.128;11.476;2023-03-23T04:37:52;10.10;99.90
12166;DHT22;6146;48.128;11.476;2023-03-23T04:40:18;10.10;99.90
12166;DHT22;6146;48.128;11.476;2023-03-23T04:42:45;10.10;99.90
12166;DHT22;6146;48.128;11.476;2023-03-23T04:45:13;10.10;99.90
12166;DHT22;6146;48.128;11.476;2023-03-23T04:47:40;10.10;99.90
12166;DHT22;6146;48.128;11.476;2023-03-23T04:50:08;10.20;99.90
12166;DHT22;6146;48.128;11.476;2023-03-23T04:52:35;10.20;99.90
12166;DHT22;6146;48.128;11.476;2023-03-23T04:55:06;10.20;99.90
12166;DHT22;6146;48.128;11.476;2023-03-23T04:57:33;10.30;99.90
12166;DHT22;6146;48.128;11.476;2023-03-23T04:59:59;10.20;99.90
12166;DHT22;6146;48.128;11.476;2023-03-23T05:02:25;10.30;99.90
12166;DHT22;6146;48.128;11.476;2023-03-23T05:04:56;10.30;99.90
12166;DHT22;6146;48.128;11.476;2023-03-23T05:07:22;10.30;99.90
12166;DHT22;6146;48.128;11.476;2023-03-23T05:09:48;10.30;99.90
12166;DHT22;6146;48.128;11.476;2023-03-23T05:12:15;10.30;99.90
12166;DHT22;6146;48.128;11.476;2023-03-23T05:14:41;10.30;99.90
12166;DHT22;6146;48.128;11.476;2023-03-23T05:17:07;10.30;99.90
12166;DHT22;6146;48.128;11.476;2023-03-23T05:19:33;10.40;99.90
12166;DHT22;6146;48.128;11.476;2023-03-23T05:21:59;10.40;99.90
12166;DHT22;6146;48.128;11.476;2023-03-23T05:24:29;10.40;99.90
12166;DHT22;6146;48.128;11.476;2023-03-23T05:26:56;10.40;99.90
12166;DHT22;6146;48.128;11.476;2023-03-23T05:29:22;10.40;99.90
12166;DHT22;6146;48.128;11.476;2023-03-23T05:31:49;10.40;99.90
12166;DHT22;6146;48.128;11.476;2023-03-23T05:34:15;10.40;99.90
12166;DHT22;6146;48.128;11.476;2023-03-23T05:36:42;10.40;99.90
12166;DHT22;6146;48.128;11.476;2023-03-23T05:39:10;10.40;99.90
12166;DHT22;6146;48.128;11.476;2023-03-23T05:41:36;10.50;99.90
12166;DHT22;6146;48.128;11.476;2023-03-23T05:44:02;10.50;99.90
12166;DHT22;6146;48.128;11.476;2023-03-23T05:46:29;10.60;99.90
12166;DHT22;6146;48.128;11.476;2023-03-23T05:48:54;10.60;99.90
12166;DHT22;6146;48.128;11.476;2023-03-23T05:51:20;10.60;99.90
12166;DHT22;6146;48.128;11.476;2023-03-23T05:53:45;10.60;99.90
12166;DHT22;6146;48.128;11.476;2023-03-23T05:56:12;10.60;99.90
12166;DHT22;6146;48.128;11.476;2023-03-23T05:58:38;10.70;99.90
12166;DHT22;6146;48.128;11.476;2023-03-23T06:01:07;10.60;99.90
12166;DHT22;6146;48.128;11.476;2023-03-23T06:03:33;10.60;99.90
12166;DHT22;6146;48.128;11.476;2023-03-23T06:06:02;10.60;99.90
12166;DHT22;6146;48.128;11.476;2023-03-23T06:08:28;10.60;99.90
12166;DHT22;6146;48.128;11.476;2023-03-23T06:10:54;10.60;99.90
12166;DHT22;6146;48.128;11.476;2023-03-23T06:13:20;10.60;99.90
12166;DHT22;6146;48.128;11.476;2023-03-23T06:15:46;10.70;99.90
12166;DHT22;6146;48.128;11.476;2023-03-23T06:18:12;10.70;99.90
12166;DHT22;6146;48.128;11.476;2023-03-23T06:20:38;10.80;99.90
12166;DHT22;6146;48.128;11.476;2023-03-23T06:23:04;10.90;99.90
12166;DHT22;6146;48.128;11.476;2023-03-23T06:25:30;11.00;99.90
12166;DHT22;6146;48.128;11.476;2023-03-23T06:27:56;11.10;99.90
12166;DHT22;6146;48.128;11.476;2023-03-23T06:30:21;11.20;99.90
12166;DHT22;6146;48.128;11.476;2023-03-23T06:32:47;11.20;99.90
12166;DHT22;6146;48.128;11.476;2023-03-23T06:35:14;11.30;99.90
12166;DHT22;6146;48.128;11.476;2023-03-23T06:37:39;11.40;99.90
12166;DHT22;6146;48.128;11.476;2023-03-23T06:40:06;11.50;99.90
12166;DHT22;6146;48.128;11.476;2023-03-23T06:42:32;11.50;99.90
12166;DHT22;6146;48.128;11.476;2023-03-23T06:44:59;11.60;99.90
12166;DHT22;6146;48.128;11.476;2023-03-23T06:47:26;11.50;99.90
12166;DHT22;6146;48.128;11.476;2023-03-23T06:49:54;11.50;99.90
12166;DHT22;6146;48.128;11.476;2023-03-23T06:52:20;11.40;99.90
12166;DHT22;6146;48.128;11.476;2023-03-23T06:54:48;11.40;99.90
12166;DHT22;6146;48.128;11.476;2023-03-23T06:57:13;11.40;99.90
12166;DHT22;6146;48.128;11.476;2023-03-23T06:59:40;11.50;99.90
12166;DHT22;6146;48.128;11.476;2023-03-23T07:02:11;11.50;99.90
12166;DHT22;6146;48.128;11.476;2023-03-23T07:04:38;11.60;99.90
12166;DHT22;6146;48.128;11.476;2023-03-23T07:07:04;11.70;99.90
12166;DHT22;6146;48.128;11.476;2023-03-23T07:09:30;11.90;99.90
12166;DHT22;6146;48.128;11.476;2023-03-23T07:11:56;12.30;99.90
12166;DHT22;6146;48.128;11.476;2023-03-23T07:14:22;12.50;99.90
12166;DHT22;6146;48.128;11.476;2023-03-23T07:16:48;12.60;99.90
12166;DHT22;6146;48.128;11.476;2023-03-23T07:19:14;12.80;99.90
12166;DHT22;6146;48.128;11.476;2023-03-23T07:21:39;13.10;99.90
12166;DHT22;6146;48.128;11.476;2023-03-23T07:24:05;13.30;99.90
12166;DHT22;6146;48.128;11.476;2023-03-23T07:26:31;13.50;99.90
12166;DHT22;6146;48.128;11.476;2023-03-23T07:28:57;13.90;99.90
12166;DHT22;6146;48.128;11.476;2023-03-23T07:31:23;14.40;99.90
12166;DHT22;6146;48.128;11.476;2023-03-23T07:33:48;14.70;99.90
12166;DHT22;6146;48.128;11.476;2023-03-23T07:36:14;15.00;99.90
12166;DHT22;6146;48.128;11.476;2023-03-23T07:38:40;15.70;99.60
12166;DHT22;6146;48.128;11.476;2023-03-23T07:41:06;16.10;98.40
12166;DHT22;6146;48.128;11.476;2023-03-23T07:43:32;16.40;97.10
12166;DHT22;6146;48.128;11.476;2023-03-23T07:45:58;16.80;96.20
12166;DHT22;6146;48.128;11.476;2023-03-23T07:48:23;17.40;93.90
12166;DHT22;6146;48.128;11.476;2023-03-23T07:50:49;17.30;93.30
12166;DHT22;6146;48.128;11.476;2023-03-23T07:53:14;17.00;94.00
12166;DHT22;6146;48.128;11.476;2023-03-23T07:55:40;16.80;93.50
12166;DHT22;6146;48.128;11.476;2023-03-23T07:58:06;16.50;94.30
12166;DHT22;6146;48.128;11.476;2023-03-23T08:00:32;16.30;94.00
12166;DHT22;6146;48.128;11.476;2023-03-23T08:02:58;16.00;94.70
12166;DHT22;6146;48.128;11.476;2023-03-23T08:05:26;16.00;95.00
12166;DHT22;6146;48.128;11.476;2023-03-23T08:07:53;16.00;94.60
12166;DHT22;6146;48.128;11.476;2023-03-23T08:10:20;15.80;94.90
12166;DHT22;6146;48.128;11.476;2023-03-23T08:12:51;15.70;95.20
12166;DHT22;6146;48.128;11.476;2023-03-23T08:15:17;15.70;95.10
12166;DHT22;6146;48.128;11.476;2023-03-23T08:17:43;15.70;95.20
12166;DHT22;6146;48.128;11.476;2023-03-23T08:20:10;15.60;95.50
12166;DHT22;6146;48.128;11.476;2023-03-23T08:22:41;15.60;95.10
12166;DHT22;6146;48.128;11.476;2023-03-23T08:25:09;15.50;95.60
12166;DHT22;6146;48.128;11.476;2023-03-23T08:27:36;15.50;95.80
12166;DHT22;6146;48.128;11.476;2023-03-23T08:30:03;15.50;96.40
12166;DHT22;6146;48.128;11.476;2023-03-23T08:32:30;15.60;95.10
12166;DHT22;6146;48.128;11.476;2023-03-23T08:34:56;15.60;95.50
12166;DHT22;6146;48.128;11.476;2023-03-23T08:37:22;15.60;95.50
12166;DHT22;6146;48.128;11.476;2023-03-23T08:39:52;15.70;95.30
12166;DHT22;6146;48.128;11.476;2023-03-23T08:42:18;15.80;94.90
12166;DHT22;6146;48.128;11.476;2023-03-23T08:44:44;16.00;95.20
12166;DHT22;6146;48.128;11.476;2023-03-23T08:47:09;16.30;93.70
12166;DHT22;6146;48.128;11.476;2023-03-23T08:49:35;16.40;93.80
12166;DHT22;6146;48.128;11.476;2023-03-23T08:52:01;16.60;94.10
12166;DHT22;6146;48.128;11.476;2023-03-23T08:54:28;16.90;93.30
12166;DHT22;6146;48.128;11.476;2023-03-23T08:56:58;17.20;93.00
12166;DHT22;6146;48.128;11.476;2023-03-23T08:59:24;17.50;92.80
12166;DHT22;6146;48.128;11.476;2023-03-23T09:01:50;17.90;93.40
12166;DHT22;6146;48.128;11.476;2023-03-23T09:04:16;18.40;92.10
12166;DHT22;6146;48.128;11.476;2023-03-23T09:06:42;19.00;91.20
12166;DHT22;6146;48.128;11.476;2023-03-23T09:09:08;19.60;87.60
12166;DHT22;6146;48.128;11.476;2023-03-23T09:11:35;20.40;82.60
12166;DHT22;6146;48.128;11.476;2023-03-23T09:14:01;20.70;79.80
12166;DHT22;6146;48.128;11.476;2023-03-23T09:16:27;20.50;79.10
12166;DHT22;6146;48.128;11.476;2023-03-23T09:18:53;20.30;80.10
12166;DHT22;6146;48.128;11.476;2023-03-23T09:21:20;20.00;80.50
12166;DHT22;6146;48.128;11.476;2023-03-23T09:23:47;19.70;81.00
12166;DHT22;6146;48.128;11.476;2023-03-23T09:26:14;19.30;79.90
12166;DHT22;6146;48.128;11.476;2023-03-23T09:28:39;19.40;80.80
12166;DHT22;6146;48.128;11.476;2023-03-23T09:31:05;19.40;81.20
12166;DHT22;6146;48.128;11.476;2023-03-23T09:33:31;19.50;80.30
12166;DHT22;6146;48.128;11.476;2023-03-23T09:36:00;19.60;80.40
12166;DHT22;6146;48.128;11.476;2023-03-23T09:38:30;19.30;80.80
12166;DHT22;6146;48.128;11.476;2023-03-23T09:41:35;18.90;83.00
12166;DHT22;6146;48.128;11.476;2023-03-23T09:49:50;18.80;84.10
12166;DHT22;6146;48.128;11.476;2023-03-23T09:52:19;18.90;83.80
12166;DHT22;6146;48.128;11.476;2023-03-23T09:54:53;19.30;82.30
12166;DHT22;6146;48.128;11.476;2023-03-23T09:57:39;20.00;80.90
12166;DHT22;6146;48.128;11.476;2023-03-23T10:01:33;20.70;77.50
12166;DHT22;6146;48.128;11.476;2023-03-23T10:03:47;20.90;75.10
12166;DHT22;6146;48.128;11.476;2023-03-23T10:06:17;21.80;75.10
12166;DHT22;6146;48.128;11.476;2023-03-23T10:08:49;22.10;72.00
12166;DHT22;6146;48.128;11.476;2023-03-23T10:11:40;21.80;68.30
12166;DHT22;6146;48.128;11.476;2023-03-23T10:14:23;21.30;70.00
12166;DHT22;6146;48.128;11.476;2023-03-23T10:18:17;20.90;70.30
12166;DHT22;6146;48.128;11.476;2023-03-23T10:20:28;20.40;70.20
12166;DHT22;6146;48.128;11.476;2023-03-23T10:23:24;20.10;72.50
12166;DHT22;6146;48.128;11.476;2023-03-23T10:26:05;19.90;72.70
12166;DHT22;6146;48.128;11.476;2023-03-23T10:28:37;19.60;71.30
12166;DHT22;6146;48.128;11.476;2023-03-23T10:31:07;19.60;73.00
12166;DHT22;6146;48.128;11.476;2023-03-23T10:33:40;19.40;70.90
12166;DHT22;6146;48.128;11.476;2023-03-23T10:36:26;19.40;71.70
12166;DHT22;6146;48.128;11.476;2023-03-23T10:39:05;19.40;69.90
12166;DHT22;6146;48.128;11.476;2023-03-23T10:41:33;19.20;70.10
12166;DHT22;6146;48.128;11.476;2023-03-23T10:43:59;19.00;70.00
12166;DHT22;6146;48.128;11.476;2023-03-23T10:46:46;19.10;71.30
12166;DHT22;6146;48.128;11.476;2023-03-23T10:54:48;19.70;69.50
12166;DHT22;6146;48.128;11.476;2023-03-23T10:59:48;19.60;68.30
12166;DHT22;6146;48.128;11.476;2023-03-23T11:02:17;19.40;70.10
12166;DHT22;6146;48.128;11.476;2023-03-23T11:05:06;19.40;69.70
12166;DHT22;6146;48.128;11.476;2023-03-23T11:07:34;19.40;70.10
12166;DHT22;6146;48.128;11.476;2023-03-23T11:10:28;19.50;69.50
12166;DHT22;6146;48.128;11.476;2023-03-23T11:12:58;19.50;71.80
12166;DHT22;6146;48.128;11.476;2023-03-23T11:15:30;19.60;69.70
12166;DHT22;6146;48.128;11.476;2023-03-23T11:18:01;19.70;69.20
12166;DHT22;6146;48.128;11.476;2023-03-23T11:20:29;19.40;69.90
12166;DHT22;6146;48.128;11.476;2023-03-23T11:22:56;19.40;71.70
12166;DHT22;6146;48.128;11.476;2023-03-23T11:25:22;19.40;71.60
12166;DHT22;6146;48.128;11.476;2023-03-23T11:27:49;19.50;70.50
12166;DHT22;6146;48.128;11.476;2023-03-23T11:30:25;19.60;70.00
12166;DHT22;6146;48.128;11.476;2023-03-23T11:32:52;19.90;70.70
12166;DHT22;6146;48.128;11.476;2023-03-23T11:35:27;20.00;70.20
12166;DHT22;6146;48.128;11.476;2023-03-23T11:37:56;20.20;69.40
12166;DHT22;6146;48.128;11.476;2023-03-23T11:40:27;20.40;67.90
12166;DHT22;6146;48.128;11.476;2023-03-23T11:43:13;20.40;67.40
12166;DHT22;6146;48.128;11.476;2023-03-23T11:45:47;20.50;67.80
12166;DHT22;6146;48.128;11.476;2023-03-23T11:56:35;20.90;65.70
12166;DHT22;6146;48.128;11.476;2023-03-23T11:59:03;21.30;68.00
12166;DHT22;6146;48.128;11.476;2023-03-23T12:12:59;22.50;59.10
12166;DHT22;6146;48.128;11.476;2023-03-23T12:15:45;22.50;60.30
12166;DHT22;6146;48.128;11.476;2023-03-23T12:21:28;22.70;58.70
12166;DHT22;6146;48.128;11.476;2023-03-23T12:24:09;23.00;59.00
12166;DHT22;6146;48.128;11.476;2023-03-23T12:26:46;22.90;56.00
12166;DHT22;6146;48.128;11.476;2023-03-23T12:34:58;21.60;58.90
12166;DHT22;6146;48.128;11.476;2023-03-23T12:38:03;21.50;58.00
12166;DHT22;6146;48.128;11.476;2023-03-23T12:45:55;21.10;59.50
12166;DHT22;6146;48.128;11.476;2023-03-23T12:48:28;20.90;60.20
12166;DHT22;6146;48.128;11.476;2023-03-23T12:54:34;20.90;58.60
12166;DHT22;6146;48.128;11.476;2023-03-23T12:56:37;20.80;57.40
12166;DHT22;6146;48.128;11.476;2023-03-23T12:59:14;20.60;58.20
12166;DHT22;6146;48.128;11.476;2023-03-23T13:01:46;20.50;58.50
12166;DHT22;6146;48.128;11.476;2023-03-23T13:04:20;20.60;58.60
12166;DHT22;6146;48.128;11.476;2023-03-23T13:06:47;20.60;58.20
12166;DHT22;6146;48.128;11.476;2023-03-23T13:09:26;20.40;58.30
12166;DHT22;6146;48.128;11.476;2023-03-23T13:11:55;20.10;58.90
12166;DHT22;6146;48.128;11.476;2023-03-23T13:17:58;19.50;59.80
12166;DHT22;6146;48.128;11.476;2023-03-23T13:20:39;19.30;61.10
12166;DHT22;6146;48.128;11.476;2023-03-23T13:23:46;19.30;60.70
12166;DHT22;6146;48.128;11.476;2023-03-23T13:26:20;19.30;61.10
12166;DHT22;6146;48.128;11.476;2023-03-23T13:31:36;19.70;61.20
12166;DHT22;6146;48.128;11.476;2023-03-23T13:36:56;20.00;62.50
12166;DHT22;6146;48.128;11.476;2023-03-23T13:39:28;20.10;65.80
12166;DHT22;6146;48.128;11.476;2023-03-23T13:42:25;20.40;65.20
12166;DHT22;6146;48.128;11.476;2023-03-23T13:50:11;20.40;66.40
12166;DHT22;6146;48.128;11.476;2023-03-23T14:03:02;20.30;66.90
12166;DHT22;6146;48.128;11.476;2023-03-23T14:05:41;20.20;65.90
12166;DHT22;6146;48.128;11.476;2023-03-23T14:08:14;20.00;67.40
12166;DHT22;6146;48.128;11.476;2023-03-23T14:10:49;19.70;68.90
12166;DHT22;6146;48.128;11.476;2023-03-23T14:13:21;19.40;68.30
12166;DHT22;6146;48.128;11.476;2023-03-23T14:16:03;19.30;67.50
12166;DHT22;6146;48.128;11.476;2023-03-23T14:18:37;19.20;68.20
12166;DHT22;6146;48.128;11.476;2023-03-23T14:21:04;19.20;67.80
12166;DHT22;6146;48.128;11.476;2023-03-23T14:23:32;19.10;68.70
12166;DHT22;6146;48.128;11.476;2023-03-23T14:26:00;19.00;68.40
12166;DHT22;6146;48.128;11.476;2023-03-23T14:28:39;19.00;69.10
12166;DHT22;6146;48.128;11.476;2023-03-23T14:31:16;19.00;68.90
12166;DHT22;6146;48.128;11.476;2023-03-23T14:33:42;19.00;69.50
12166;DHT22;6146;48.128;11.476;2023-03-23T14:36:08;19.00;70.10
12166;DHT22;6146;48.128;11.476;2023-03-23T14:38:34;18.90;69.50
12166;DHT22;6146;48.128;11.476;2023-03-23T14:41:02;19.00;70.50
12166;DHT22;6146;48.128;11.476;2023-03-23T14:43:29;19.10;71.20
12166;DHT22;6146;48.128;11.476;2023-03-23T14:45:57;19.00;70.20
12166;DHT22;6146;48.128;11.476;2023-03-23T14:48:24;19.00;70.40
12166;DHT22;6146;48.128;11.476;2023-03-23T14:50:59;19.00;70.40
12166;DHT22;6146;48.128;11.476;2023-03-23T14:53:36;18.90;70.90
12166;DHT22;6146;48.128;11.476;2023-03-23T14:56:21;18.90;70.80
12166;DHT22;6146;48.128;11.476;2023-03-23T14:58:52;18.90;71.60
12166;DHT22;6146;48.128;11.476;2023-03-23T15:01:20;18.80;71.50
12166;DHT22;6146;48.128;11.476;2023-03-23T15:04:02;18.60;71.50
12166;DHT22;6146;48.128;11.476;2023-03-23T15:06:32;18.30;72.10
12166;DHT22;6146;48.128;11.476;2023-03-23T15:09:00;18.10;73.20
12166;DHT22;6146;48.128;11.476;2023-03-23T15:11:32;18.10;73.80
12166;DHT22;6146;48.128;11.476;2023-03-23T15:14:02;18.00;74.50
12166;DHT22;6146;48.128;11.476;2023-03-23T15:16:32;18.10;75.40
12166;DHT22;6146;48.128;11.476;2023-03-23T15:21:34;18.10;75.50
12166;DHT22;6146;48.128;11.476;2023-03-23T15:24:01;18.20;75.60
12166;DHT22;6146;48.128;11.476;2023-03-23T15:26:33;18.10;76.00
12166;DHT22;6146;48.128;11.476;2023-03-23T15:29:03;18.10;77.80
12166;DHT22;6146;48.128;11.476;2023-03-23T15:31:29;18.00;77.50
12166;DHT22;6146;48.128;11.476;2023-03-23T15:33:58;17.90;79.30
12166;DHT22;6146;48.128;11.476;2023-03-23T15:36:25;17.90;78.30
12166;DHT22;6146;48.128;11.476;2023-03-23T15:38:50;17.80;78.00
12166;DHT22;6146;48.128;11.476;2023-03-23T15:41:28;17.70;78.70
12166;DHT22;6146;48.128;11.476;2023-03-23T15:43:57;17.50;78.70
12166;DHT22;6146;48.128;11.476;2023-03-23T15:46:26;17.50;80.80
12166;DHT22;6146;48.128;11.476;2023-03-23T15:51:30;17.40;79.50
12166;DHT22;6146;48.128;11.476;2023-03-23T15:53:56;17.30;80.30
12166;DHT22;6146;48.128;11.476;2023-03-23T15:56:22;17.30;82.20
12166;DHT22;6146;48.128;11.476;2023-03-23T15:58:49;17.30;80.00
12166;DHT22;6146;48.128;11.476;2023-03-23T16:01:20;17.30;82.30
12166;DHT22;6146;48.128;11.476;2023-03-23T16:04:03;17.20;81.50
12166;DHT22;6146;48.128;11.476;2023-03-23T16:06:32;17.20;82.10
12166;DHT22;6146;48.128;11.476;2023-03-23T16:08:58;17.10;82.70
12166;DHT22;6146;48.128;11.476;2023-03-23T16:11:26;17.00;82.00
12166;DHT22;6146;48.128;11.476;2023-03-23T16:13:52;16.90;82.30
12166;DHT22;6146;48.128;11.476;2023-03-23T16:16:24;17.00;82.80
12166;DHT22;6146;48.128;11.476;2023-03-23T16:18:51;16.90;84.30
12166;DHT22;6146;48.128;11.476;2023-03-23T16:21:17;16.90;83.50
12166;DHT22;6146;48.128;11.476;2023-03-23T16:23:42;16.80;84.40
12166;DHT22;6146;48.128;11.476;2023-03-23T16:26:13;16.80;85.00
12166;DHT22;6146;48.128;11.476;2023-03-23T16:28:40;16.70;86.80
12166;DHT22;6146;48.128;11.476;2023-03-23T16:31:06;16.70;88.30
12166;DHT22;6146;48.128;11.476;2023-03-23T16:33:31;16.60;89.20
12166;DHT22;6146;48.128;11.476;2023-03-23T16:35:57;16.60;90.30
12166;DHT22;6146;48.128;11.476;2023-03-23T16:38:22;16.50;90.70
12166;DHT22;6146;48.128;11.476;2023-03-23T16:40:48;16.40;91.60
12166;DHT22;6146;48.128;11.476;2023-03-23T16:43:14;16.40;91.50
12166;DHT22;6146;48.128;11.476;2023-03-23T16:45:41;16.40;91.70
12166;DHT22;6146;48.128;11.476;2023-03-23T16:48:08;16.40;92.40
12166;DHT22;6146;48.128;11.476;2023-03-23T16:50:35;16.30;92.10
12166;DHT22;6146;48.128;11.476;2023-03-23T16:53:02;16.30;92.70
12166;DHT22;6146;48.128;11.476;2023-03-23T16:55:29;16.20;93.40
12166;DHT22;6146;48.128;11.476;2023-03-23T16:57:55;16.20;93.70
12166;DHT22;6146;48.128;11.476;2023-03-23T17:00:21;16.20;94.10
12166;DHT22;6146;48.128;11.476;2023-03-23T17:02:49;16.20;94.20
12166;DHT22;6146;48.128;11.476;2023-03-23T17:05:17;16.10;94.40
12166;DHT22;6146;48.128;11.476;2023-03-23T17:07:44;16.00;94.00
12166;DHT22;6146;48.128;11.476;2023-03-23T17:10:10;16.00;93.60
12166;DHT22;6146;48.128;11.476;2023-03-23T17:12:36;15.80;93.90
12166;DHT22;6146;48.128;11.476;2023-03-23T17:15:03;15.70;94.50
12166;DHT22;6146;48.128;11.476;2023-03-23T17:17:28;15.60;94.30
12166;DHT22;6146;48.128;11.476;2023-03-23T17:19:54;15.60;94.90
12166;DHT22;6146;48.128;11.476;2023-03-23T17:22:20;15.50;94.90
12166;DHT22;6146;48.128;11.476;2023-03-23T17:24:46;15.50;95.20